createdAt,value
2023-02-25T00:00:12.832Z,50.29
2023-02-25T00:02:31.174Z,50.29
2023-02-25T00:03:40.354Z,49.95
2023-02-25T00:04:49.529Z,50.29
2023-02-25T00:05:58.696Z,49.95
2023-02-25T00:07:07.874Z,50.29
2023-02-25T00:08:16.083Z,50.29
2023-02-25T00:09:24.248Z,50.29
2023-02-25T00:10:32.468Z,50.29
2023-02-25T00:11:40.716Z,49.28
2023-02-25T00:12:49.851Z,50.29
2023-02-25T00:13:58.981Z,50.29
2023-02-25T00:15:08.203Z,49.28
2023-02-25T00:16:17.331Z,50.29
2023-02-25T00:17:26.506Z,50.29
2023-02-25T00:18:35.667Z,50.29
2023-02-25T00:19:44.828Z,49.95
2023-02-25T00:20:54.015Z,50.29
2023-02-25T00:22:03.191Z,49.95
2023-02-25T00:23:12.361Z,50.29
2023-02-25T00:24:21.561Z,50.29
2023-02-25T00:25:30.721Z,50.29
2023-02-25T00:26:38.916Z,50.29
2023-02-25T00:27:48.076Z,50.29
2023-02-25T00:30:06.425Z,50.29
2023-02-25T00:31:15.590Z,50.29
2023-02-25T00:32:24.772Z,49.95
2023-02-25T00:33:33.951Z,49.62
2023-02-25T00:35:52.282Z,50.29
2023-02-25T00:37:01.434Z,49.28
2023-02-25T00:38:10.637Z,49.95
2023-02-25T00:39:19.807Z,49.95
2023-02-25T00:40:29.014Z,50.29
2023-02-25T00:41:37.223Z,50.29
2023-02-25T00:42:46.336Z,50.29
2023-02-25T00:43:55.510Z,50.29
2023-02-25T00:45:04.693Z,49.28
2023-02-25T00:46:13.866Z,50.29
2023-02-25T00:47:23.032Z,50.29
2023-02-25T00:48:32.204Z,49.95
2023-02-25T00:50:50.555Z,50.29
2023-02-25T00:51:58.741Z,50.29
2023-02-25T00:53:06.953Z,50.29
2023-02-25T00:54:16.109Z,50.29
2023-02-25T00:55:25.284Z,50.29
2023-02-25T00:56:34.455Z,50.29
2023-02-25T00:57:43.626Z,50.29
2023-02-25T00:58:52.794Z,50.29
2023-02-25T01:00:01.990Z,50.29
2023-02-25T01:01:11.152Z,50.29
2023-02-25T01:02:20.324Z,50.29
2023-02-25T01:03:29.508Z,49.28
2023-02-25T01:04:37.683Z,49.62
2023-02-25T01:05:45.865Z,49.95
2023-02-25T01:06:54.068Z,50.29
2023-02-25T01:08:03.241Z,50.29
2023-02-25T01:09:12.434Z,49.95
2023-02-25T01:10:21.599Z,49.95
2023-02-25T01:11:30.769Z,49.62
2023-02-25T01:12:39.925Z,50.29
2023-02-25T01:13:49.100Z,50.29
2023-02-25T01:14:58.332Z,50.29
2023-02-25T01:16:07.444Z,50.29
2023-02-25T01:17:16.616Z,50.29
2023-02-25T01:18:25.792Z,50.29
2023-02-25T01:19:35.014Z,49.95
2023-02-25T01:20:44.137Z,50.29
2023-02-25T01:21:53.305Z,50.29
2023-02-25T01:23:01.513Z,50.29
2023-02-25T01:25:19.837Z,50.29
2023-02-25T01:26:29.118Z,50.29
2023-02-25T01:27:38.187Z,50.29
2023-02-25T01:28:47.347Z,50.29
2023-02-25T01:29:55.548Z,50.29
2023-02-25T01:31:03.740Z,50.29
2023-02-25T01:32:12.925Z,50.29
2023-02-25T01:33:21.160Z,50.29
2023-02-25T01:34:29.295Z,50.29
2023-02-25T01:35:38.472Z,50.29
2023-02-25T01:36:47.638Z,50.29
2023-02-25T01:37:56.811Z,49.95
2023-02-25T01:39:06.017Z,50.29
2023-02-25T01:41:24.345Z,50.29
2023-02-25T01:42:33.517Z,50.29
2023-02-25T01:43:42.678Z,50.29
2023-02-25T01:46:01.030Z,50.29
2023-02-25T01:47:10.212Z,50.29
2023-02-25T01:48:18.405Z,50.29
2023-02-25T01:49:26.586Z,50.29
2023-02-25T01:50:35.762Z,50.29
2023-02-25T01:51:44.946Z,50.29
2023-02-25T01:52:54.145Z,50.29
2023-02-25T01:54:03.287Z,50.29
2023-02-25T01:55:12.474Z,50.29
2023-02-25T01:56:21.625Z,49.62
2023-02-25T01:57:30.793Z,50.29
2023-02-25T01:58:39.974Z,50.29
2023-02-25T01:59:49.148Z,49.95
2023-02-25T02:00:57.338Z,50.29
2023-02-25T02:02:05.530Z,49.95
2023-02-25T02:03:14.716Z,50.29
2023-02-25T02:04:23.881Z,50.29
2023-02-25T02:05:33.040Z,50.29
2023-02-25T02:06:42.223Z,49.95
2023-02-25T02:07:51.396Z,50.29
2023-02-25T02:09:00.564Z,50.29
2023-02-25T02:10:09.733Z,50.29
2023-02-25T02:12:28.084Z,50.29
2023-02-25T02:13:37.267Z,50.29
2023-02-25T02:14:46.472Z,49.95
2023-02-25T02:15:55.597Z,50.29
2023-02-25T02:17:04.776Z,50.29
2023-02-25T02:18:12.982Z,50.29
2023-02-25T02:19:22.136Z,49.95
2023-02-25T02:20:31.330Z,50.29
2023-02-25T02:21:40.488Z,49.95
2023-02-25T02:22:49.661Z,49.95
2023-02-25T02:23:58.827Z,50.29
2023-02-25T02:25:08.008Z,50.29
2023-02-25T02:26:17.181Z,50.29
2023-02-25T02:27:25.364Z,50.29
2023-02-25T02:28:33.567Z,49.95
2023-02-25T02:29:41.756Z,50.29
2023-02-25T02:30:49.957Z,50.29
2023-02-25T02:33:08.428Z,50.29
2023-02-25T02:34:17.465Z,50.29
2023-02-25T02:35:26.668Z,50.29
2023-02-25T02:36:35.810Z,49.95
2023-02-25T02:37:44.969Z,48.94
2023-02-25T02:38:54.154Z,50.29
2023-02-25T02:40:03.323Z,50.29
2023-02-25T02:41:12.503Z,50.29
2023-02-25T02:42:21.663Z,50.29
2023-02-25T02:43:30.849Z,49.95
2023-02-25T02:44:40.009Z,50.29
2023-02-25T02:45:48.205Z,50.29
2023-02-25T02:46:57.377Z,49.95
2023-02-25T02:48:06.553Z,50.29
2023-02-25T02:49:15.725Z,50.29
2023-02-25T02:50:24.888Z,50.29
2023-02-25T02:51:34.062Z,50.29
2023-02-25T02:52:43.232Z,50.29
2023-02-25T02:53:52.411Z,50.29
2023-02-25T02:55:00.612Z,50.29
2023-02-25T02:56:08.787Z,49.95
2023-02-25T02:57:17.969Z,50.29
2023-02-25T02:58:26.190Z,50.29
2023-02-25T02:59:34.366Z,50.29
2023-02-25T03:00:43.534Z,50.29
2023-02-25T03:01:52.698Z,50.29
2023-02-25T03:03:01.874Z,50.29
2023-02-25T03:04:11.039Z,50.29
2023-02-25T03:05:20.231Z,50.29
2023-02-25T03:06:29.398Z,50.29
2023-02-25T03:08:47.727Z,50.29
2023-02-25T03:09:56.927Z,50.29
2023-02-25T03:11:06.133Z,50.29
2023-02-25T03:12:15.249Z,50.29
2023-02-25T03:13:24.468Z,49.95
2023-02-25T03:14:32.613Z,50.29
2023-02-25T03:15:41.779Z,50.29
2023-02-25T03:16:50.948Z,50.29
2023-02-25T03:18:00.126Z,50.29
2023-02-25T03:19:09.331Z,50.62
2023-02-25T03:20:18.474Z,50.29
2023-02-25T03:21:27.649Z,50.29
2023-02-25T03:22:36.932Z,50.29
2023-02-25T03:23:45.987Z,50.29
2023-02-25T03:24:55.161Z,50.29
2023-02-25T03:26:04.341Z,50.29
2023-02-25T03:27:12.531Z,50.29
2023-02-25T03:28:20.726Z,50.29
2023-02-25T03:29:28.921Z,50.29
2023-02-25T03:30:37.113Z,50.29
2023-02-25T03:31:46.281Z,50.29
2023-02-25T03:32:55.471Z,50.29
2023-02-25T03:34:04.659Z,50.29
2023-02-25T03:35:13.836Z,50.29
2023-02-25T03:36:22.985Z,50.29
2023-02-25T03:37:32.149Z,50.29
2023-02-25T03:39:50.498Z,50.29
2023-02-25T03:40:59.676Z,50.29
2023-02-25T03:42:08.843Z,50.29
2023-02-25T03:43:18.020Z,50.29
2023-02-25T03:44:27.186Z,50.29
2023-02-25T03:45:35.388Z,50.29
2023-02-25T03:46:44.589Z,50.29
2023-02-25T03:47:53.803Z,50.29
2023-02-25T03:49:02.915Z,50.29
2023-02-25T03:50:12.058Z,50.29
2023-02-25T03:52:30.460Z,50.29
2023-02-25T03:53:38.604Z,50.29
2023-02-25T03:54:46.785Z,50.29
2023-02-25T03:55:55.958Z,50.29
2023-02-25T03:57:05.142Z,50.29
2023-02-25T03:58:14.323Z,50.29
2023-02-25T03:59:23.543Z,50.29
2023-02-25T04:00:32.647Z,50.29
2023-02-25T04:01:41.828Z,50.29
2023-02-25T04:02:50.998Z,49.95
2023-02-25T04:04:00.213Z,50.29
2023-02-25T04:05:09.340Z,50.29
2023-02-25T04:06:17.549Z,50.29
2023-02-25T04:07:25.731Z,50.29
2023-02-25T04:08:34.905Z,50.29
2023-02-25T04:09:44.068Z,50.29
2023-02-25T04:10:53.253Z,50.29
2023-02-25T04:12:02.430Z,50.29
2023-02-25T04:13:11.587Z,50.29
2023-02-25T04:14:20.762Z,50.29
2023-02-25T04:15:29.939Z,50.29
2023-02-25T04:17:48.289Z,50.29
2023-02-25T04:18:57.459Z,50.29
2023-02-25T04:20:06.639Z,50.29
2023-02-25T04:21:15.804Z,50.29
2023-02-25T04:22:23.991Z,50.29
2023-02-25T04:23:33.180Z,50.29
2023-02-25T04:24:42.332Z,49.62
2023-02-25T04:25:51.504Z,50.29
2023-02-25T04:27:00.683Z,50.29
2023-02-25T04:28:09.849Z,50.29
2023-02-25T04:29:19.278Z,50.29
2023-02-25T04:30:28.199Z,50.29
2023-02-25T04:31:37.373Z,50.29
2023-02-25T04:32:46.550Z,50.29
2023-02-25T04:33:55.710Z,50.29
2023-02-25T04:35:04.900Z,50.29
2023-02-25T04:36:14.061Z,50.29
2023-02-25T04:38:31.422Z,50.29
2023-02-25T04:39:40.596Z,49.95
2023-02-25T04:40:49.794Z,50.29
2023-02-25T04:41:58.956Z,50.29
2023-02-25T04:44:17.356Z,50.29
2023-02-25T04:45:26.457Z,50.29
2023-02-25T04:46:35.675Z,50.29
2023-02-25T04:47:44.815Z,50.29
2023-02-25T04:48:54.056Z,50.29
2023-02-25T04:50:03.153Z,50.29
2023-02-25T04:51:12.323Z,50.29
2023-02-25T04:52:20.575Z,50.29
2023-02-25T04:53:28.708Z,50.29
2023-02-25T04:54:37.888Z,50.29
2023-02-25T04:55:47.072Z,50.29
2023-02-25T04:56:56.231Z,50.29
2023-02-25T04:58:04.426Z,50.29
2023-02-25T04:59:12.627Z,50.29
2023-02-25T05:00:21.784Z,50.29
2023-02-25T05:01:30.970Z,50.29
2023-02-25T05:02:40.156Z,49.95
2023-02-25T05:03:49.314Z,50.29
2023-02-25T05:04:58.479Z,50.29
2023-02-25T05:06:07.654Z,50.29
2023-02-25T05:07:16.842Z,50.29
2023-02-25T05:08:26.016Z,50.29
2023-02-25T05:09:35.178Z,50.29
2023-02-25T05:10:44.357Z,50.29
2023-02-25T05:11:53.516Z,49.95
2023-02-25T05:13:02.696Z,50.29
2023-02-25T05:15:20.064Z,50.29
2023-02-25T05:16:29.242Z,50.29
2023-02-25T05:17:38.405Z,50.29
2023-02-25T05:18:47.575Z,50.29
2023-02-25T05:19:56.745Z,49.95
2023-02-25T05:21:05.926Z,50.29
2023-02-25T05:22:15.101Z,50.29
2023-02-25T05:23:23.390Z,50.29
2023-02-25T05:24:31.479Z,50.29
2023-02-25T05:25:40.646Z,49.95
2023-02-25T05:26:49.832Z,50.29
2023-02-25T05:27:59.009Z,50.29
2023-02-25T05:29:07.197Z,50.29
2023-02-25T05:30:15.407Z,50.29
2023-02-25T05:31:24.556Z,50.29
2023-02-25T05:32:33.749Z,50.29
2023-02-25T05:33:42.903Z,50.29
2023-02-25T05:34:52.063Z,50.29
2023-02-25T05:36:01.243Z,50.29
2023-02-25T05:37:10.423Z,50.29
2023-02-25T05:38:19.590Z,50.29
2023-02-25T05:39:28.755Z,50.29
2023-02-25T05:40:37.932Z,50.29
2023-02-25T05:41:47.101Z,50.29
2023-02-25T05:42:56.324Z,50.29
2023-02-25T05:44:05.459Z,50.29
2023-02-25T05:45:13.711Z,50.29
2023-02-25T05:46:22.819Z,50.29
2023-02-25T05:47:31.980Z,50.29
2023-02-25T05:48:41.167Z,50.29
2023-02-25T05:49:50.340Z,50.29
2023-02-25T05:50:59.545Z,50.29
2023-02-25T05:52:08.676Z,50.29
2023-02-25T05:53:17.854Z,50.29
2023-02-25T05:54:27.027Z,49.95
2023-02-25T05:55:36.186Z,49.95
2023-02-25T05:56:45.388Z,50.29
2023-02-25T05:57:54.544Z,50.29
2023-02-25T05:59:03.717Z,50.29
2023-02-25T06:01:21.080Z,50.29
2023-02-25T06:02:30.260Z,50.29
2023-02-25T06:03:39.423Z,50.29
2023-02-25T06:04:48.598Z,50.29
2023-02-25T06:05:57.772Z,50.29
2023-02-25T06:07:06.966Z,50.29
2023-02-25T06:08:16.156Z,50.29
2023-02-25T06:09:25.285Z,50.29
2023-02-25T06:10:34.457Z,50.29
2023-02-25T06:11:43.649Z,50.29
2023-02-25T06:12:52.837Z,50.29
2023-02-25T06:14:01.982Z,50.29
2023-02-25T06:15:10.162Z,50.29
2023-02-25T06:16:19.328Z,50.29
2023-02-25T06:17:28.507Z,50.29
2023-02-25T06:18:37.743Z,50.29
2023-02-25T06:19:45.882Z,50.29
2023-02-25T06:20:55.070Z,50.29
2023-02-25T06:22:03.239Z,50.29
2023-02-25T06:23:11.437Z,50.29
2023-02-25T06:24:19.637Z,50.29
2023-02-25T06:25:28.808Z,50.29
2023-02-25T06:26:37.977Z,50.29
2023-02-25T06:27:47.144Z,50.29
2023-02-25T06:28:56.316Z,50.29
2023-02-25T06:30:05.546Z,50.29
2023-02-25T06:31:14.653Z,50.29
2023-02-25T06:32:23.841Z,50.29
2023-02-25T06:33:33.016Z,49.62
2023-02-25T06:34:42.180Z,49.28
2023-02-25T06:35:51.374Z,48.94
2023-02-25T06:37:00.525Z,49.28
2023-02-25T06:38:09.689Z,49.62
2023-02-25T06:39:17.955Z,49.95
2023-02-25T06:40:27.058Z,48.94
2023-02-25T06:41:36.475Z,49.95
2023-02-25T06:42:45.423Z,49.62
2023-02-25T06:43:54.575Z,49.95
2023-02-25T06:45:03.760Z,49.95
2023-02-25T06:46:12.930Z,49.95
2023-02-25T06:47:21.119Z,49.95
2023-02-25T06:48:29.300Z,50.29
2023-02-25T06:49:38.489Z,49.62
2023-02-25T06:50:47.649Z,49.95
2023-02-25T06:51:55.908Z,50.29
2023-02-25T06:53:04.036Z,50.29
2023-02-25T06:54:13.209Z,50.29
2023-02-25T06:55:22.382Z,50.29
2023-02-25T06:56:31.568Z,50.29
2023-02-25T06:57:40.723Z,50.29
2023-02-25T06:58:50.039Z,50.29
2023-02-25T06:59:59.098Z,50.29
2023-02-25T07:01:08.244Z,50.29
2023-02-25T07:02:17.428Z,50.29
2023-02-25T07:03:26.609Z,50.29
2023-02-25T07:04:35.764Z,49.95
2023-02-25T07:06:54.104Z,50.29
2023-02-25T07:08:02.393Z,50.29
2023-02-25T07:09:11.473Z,50.29
2023-02-25T07:10:20.643Z,50.29
2023-02-25T07:11:29.861Z,50.29
2023-02-25T07:12:39.014Z,50.29
2023-02-25T07:13:48.196Z,50.29
2023-02-25T07:14:57.329Z,50.29
2023-02-25T07:16:06.520Z,50.29
2023-02-25T07:17:14.698Z,50.29
2023-02-25T07:19:32.069Z,50.29
2023-02-25T07:20:41.259Z,50.29
2023-02-25T07:21:50.408Z,50.29
2023-02-25T07:22:58.594Z,50.29
2023-02-25T07:25:15.958Z,50.29
2023-02-25T07:26:25.139Z,50.29
2023-02-25T07:27:34.314Z,50.29
2023-02-25T07:28:43.497Z,50.29
2023-02-25T07:29:52.647Z,50.29
2023-02-25T07:31:01.876Z,50.29
2023-02-25T07:33:20.171Z,50.29
2023-02-25T07:34:29.335Z,50.29
2023-02-25T07:35:38.528Z,50.29
2023-02-25T07:36:47.701Z,49.95
2023-02-25T07:37:56.865Z,50.29
2023-02-25T07:40:14.237Z,50.29
2023-02-25T07:41:22.428Z,50.29
2023-02-25T07:42:30.629Z,50.29
2023-02-25T07:43:39.839Z,50.29
2023-02-25T07:44:48.964Z,50.29
2023-02-25T07:45:58.136Z,50.29
2023-02-25T07:47:07.311Z,50.29
2023-02-25T07:48:16.477Z,50.29
2023-02-25T07:49:25.659Z,50.29
2023-02-25T07:50:34.823Z,49.95
2023-02-25T07:51:44.002Z,50.29
2023-02-25T07:52:53.217Z,50.29
2023-02-25T07:54:02.350Z,50.29
2023-02-25T07:55:11.553Z,50.29
2023-02-25T07:56:19.718Z,50.29
2023-02-25T07:57:27.914Z,49.95
2023-02-25T07:58:37.101Z,50.29
2023-02-25T07:59:46.251Z,50.29
2023-02-25T08:00:55.429Z,50.29
2023-02-25T08:02:04.658Z,50.29
2023-02-25T08:03:13.787Z,50.29
2023-02-25T08:04:22.940Z,50.29
2023-02-25T08:05:32.130Z,50.29
2023-02-25T08:06:41.327Z,50.29
2023-02-25T08:07:50.498Z,50.29
2023-02-25T08:08:59.742Z,50.29
2023-02-25T08:10:08.920Z,50.29
2023-02-25T08:11:18.046Z,49.95
2023-02-25T08:12:26.168Z,50.29
2023-02-25T08:14:44.517Z,50.29
2023-02-25T08:15:53.682Z,49.95
2023-02-25T08:17:02.872Z,50.29
2023-02-25T08:18:12.056Z,50.29
2023-02-25T08:19:21.239Z,50.29
2023-02-25T08:20:30.445Z,50.29
2023-02-25T08:21:39.563Z,50.29
2023-02-25T08:22:48.748Z,50.29
2023-02-25T08:25:06.092Z,50.29
2023-02-25T08:26:14.285Z,50.29
2023-02-25T08:27:22.482Z,50.29
2023-02-25T08:28:31.693Z,50.29
2023-02-25T08:29:40.853Z,50.29
2023-02-25T08:30:50.028Z,50.29
2023-02-25T08:31:59.176Z,50.29
2023-02-25T08:33:08.331Z,50.29
2023-02-25T08:34:17.541Z,50.29
2023-02-25T08:35:26.708Z,50.29
2023-02-25T08:36:35.850Z,50.29
2023-02-25T08:37:45.040Z,50.29
2023-02-25T08:38:54.197Z,50.29
2023-02-25T08:40:03.404Z,50.29
2023-02-25T08:41:12.594Z,50.29
2023-02-25T08:42:20.785Z,50.29
2023-02-25T08:43:29.909Z,50.29
2023-02-25T08:44:39.129Z,50.29
2023-02-25T08:45:48.249Z,50.29
2023-02-25T08:46:57.419Z,50.62
2023-02-25T08:48:06.665Z,50.29
2023-02-25T08:49:14.790Z,50.29
2023-02-25T08:50:23.079Z,50.29
2023-02-25T08:51:31.207Z,50.29
2023-02-25T08:52:40.342Z,50.29
2023-02-25T08:53:49.526Z,50.29
2023-02-25T08:54:57.707Z,50.29
2023-02-25T08:56:05.913Z,50.62
2023-02-25T08:57:15.110Z,50.29
2023-02-25T08:58:24.270Z,50.29
2023-02-25T08:59:33.405Z,50.29
2023-02-25T09:00:42.586Z,49.95
2023-02-25T09:01:50.790Z,50.29
2023-02-25T09:02:58.978Z,49.62
2023-02-25T09:04:08.135Z,50.29
2023-02-25T09:05:17.321Z,50.29
2023-02-25T09:06:26.491Z,49.95
2023-02-25T09:07:35.688Z,49.95
2023-02-25T09:08:44.828Z,49.95
2023-02-25T09:09:53.999Z,49.28
2023-02-25T09:11:03.179Z,50.29
2023-02-25T09:12:12.353Z,49.95
2023-02-25T09:13:21.571Z,50.29
2023-02-25T09:14:30.829Z,50.29
2023-02-25T09:15:39.882Z,49.62
2023-02-25T09:16:49.040Z,50.29
2023-02-25T09:17:57.292Z,50.29
2023-02-25T09:19:06.400Z,50.29
2023-02-25T09:20:15.591Z,49.95
2023-02-25T09:21:24.752Z,49.62
2023-02-25T09:22:33.920Z,48.94
2023-02-25T09:23:43.086Z,49.62
2023-02-25T09:24:52.267Z,50.29
2023-02-25T09:26:01.443Z,49.62
2023-02-25T09:27:10.632Z,49.28
2023-02-25T09:28:19.803Z,49.28
2023-02-25T09:29:28.043Z,49.62
2023-02-25T09:30:36.186Z,50.29
2023-02-25T09:31:45.347Z,49.95
2023-02-25T09:32:54.506Z,50.29
2023-02-25T09:34:03.752Z,50.29
2023-02-25T09:35:12.874Z,49.95
2023-02-25T09:36:22.057Z,50.29
2023-02-25T09:38:40.410Z,50.29
2023-02-25T09:39:49.560Z,49.62
2023-02-25T09:40:58.732Z,49.62
2023-02-25T09:42:07.939Z,48.61
2023-02-25T09:43:17.060Z,49.62
2023-02-25T09:44:26.288Z,50.29
2023-02-25T09:45:34.425Z,49.95
2023-02-25T09:46:43.621Z,48.94
2023-02-25T09:47:52.769Z,48.61
2023-02-25T09:49:01.945Z,49.62
2023-02-25T09:50:11.139Z,47.94
2023-02-25T09:51:20.423Z,49.28
2023-02-25T09:52:29.463Z,48.27
2023-02-25T09:53:38.751Z,49.95
2023-02-25T09:54:46.910Z,49.62
2023-02-25T09:55:55.059Z,48.27
2023-02-25T09:57:04.183Z,49.28
2023-02-25T09:58:13.370Z,49.28
2023-02-25T09:59:21.607Z,49.62
2023-02-25T10:00:29.746Z,49.95
2023-02-25T10:01:38.922Z,48.94
2023-02-25T10:02:47.115Z,49.62
2023-02-25T10:03:55.314Z,49.62
2023-02-25T10:05:04.493Z,48.61
2023-02-25T10:06:13.669Z,47.27
2023-02-25T10:07:22.881Z,47.27
2023-02-25T10:08:32.002Z,47.94
2023-02-25T10:09:41.247Z,48.94
2023-02-25T10:10:50.339Z,47.94
2023-02-25T10:11:59.518Z,48.27
2023-02-25T10:13:08.683Z,48.61
2023-02-25T10:14:17.865Z,48.61
2023-02-25T10:15:27.122Z,48.61
2023-02-25T10:16:36.224Z,48.27
2023-02-25T10:17:45.400Z,46.26
2023-02-25T10:18:53.571Z,47.94
2023-02-25T10:20:02.789Z,47.6
2023-02-25T10:21:11.928Z,47.94
2023-02-25T10:22:21.303Z,47.94
2023-02-25T10:23:30.268Z,45.93
2023-02-25T10:24:39.435Z,46.6
2023-02-25T10:25:48.628Z,47.94
2023-02-25T10:26:57.778Z,49.28
2023-02-25T10:28:06.944Z,48.94
2023-02-25T10:29:16.118Z,48.27
2023-02-25T10:30:25.306Z,48.27
2023-02-25T10:31:34.476Z,48.27
2023-02-25T10:32:43.644Z,47.6
2023-02-25T10:33:51.933Z,46.93
2023-02-25T10:35:01.007Z,48.94
2023-02-25T10:36:10.190Z,47.27
2023-02-25T10:37:19.349Z,47.6
2023-02-25T10:38:28.517Z,48.27
2023-02-25T10:39:37.696Z,46.6
2023-02-25T10:41:55.061Z,49.28
2023-02-25T10:43:03.274Z,47.27
2023-02-25T10:44:11.441Z,48.61
2023-02-25T10:45:19.655Z,48.27
2023-02-25T10:46:27.940Z,48.94
2023-02-25T10:47:36.993Z,48.61
2023-02-25T10:48:46.165Z,47.27
2023-02-25T10:51:04.525Z,47.94
2023-02-25T10:52:13.687Z,48.61
2023-02-25T10:54:32.176Z,48.61
2023-02-25T10:56:50.575Z,47.94
2023-02-25T10:57:59.667Z,46.26
2023-02-25T10:59:08.902Z,48.61
2023-02-25T11:00:17.895Z,45.59
2023-02-25T11:01:26.304Z,47.94
2023-02-25T11:02:34.448Z,48.27
2023-02-25T11:03:43.490Z,47.27
2023-02-25T11:04:52.738Z,47.6
2023-02-25T11:06:01.958Z,48.27
2023-02-25T11:07:11.120Z,48.27
2023-02-25T11:08:20.286Z,48.94
2023-02-25T11:09:29.462Z,49.28
2023-02-25T11:10:38.594Z,48.94
2023-02-25T11:11:47.817Z,48.94
2023-02-25T11:12:57.027Z,48.94
2023-02-25T11:14:05.161Z,47.94
2023-02-25T11:15:13.213Z,48.27
2023-02-25T11:16:22.446Z,48.61
2023-02-25T11:17:31.729Z,49.95
2023-02-25T11:19:50.107Z,48.94
2023-02-25T11:20:59.254Z,49.95
2023-02-25T11:22:08.247Z,47.6
2023-02-25T11:23:17.444Z,47.27
2023-02-25T11:24:26.712Z,46.93
2023-02-25T11:25:35.815Z,47.94
2023-02-25T11:26:45.095Z,46.93
2023-02-25T11:27:54.261Z,49.62
2023-02-25T11:29:03.434Z,48.61
2023-02-25T11:30:11.486Z,47.27
2023-02-25T11:31:20.756Z,49.28
2023-02-25T11:32:29.949Z,47.6
2023-02-25T11:33:39.164Z,48.94
2023-02-25T11:34:48.318Z,50.29
2023-02-25T11:35:57.520Z,47.94
2023-02-25T11:37:06.666Z,47.94
2023-02-25T11:38:15.747Z,48.94
2023-02-25T11:39:24.050Z,47.6
2023-02-25T11:40:32.259Z,48.27
2023-02-25T11:41:41.382Z,47.6
2023-02-25T11:42:50.507Z,47.6
2023-02-25T11:43:59.648Z,48.61
2023-02-25T11:45:08.888Z,48.61
2023-02-25T11:46:17.997Z,47.94
2023-02-25T11:47:27.170Z,48.27
2023-02-25T11:48:36.400Z,49.62
2023-02-25T11:49:45.550Z,47.6
2023-02-25T11:50:54.636Z,49.95
2023-02-25T11:52:03.859Z,48.94
2023-02-25T11:53:13.078Z,48.94
2023-02-25T11:54:22.244Z,48.61
2023-02-25T11:55:30.372Z,49.95
2023-02-25T11:56:39.622Z,48.61
2023-02-25T11:57:48.770Z,48.27
2023-02-25T11:58:57.861Z,48.94
2023-02-25T12:00:07.085Z,46.6
2023-02-25T12:01:16.184Z,48.61
2023-02-25T12:03:34.529Z,48.61
2023-02-25T12:04:42.744Z,50.29
2023-02-25T12:05:51.982Z,48.94
2023-02-25T12:07:00.152Z,48.27
2023-02-25T12:08:08.315Z,48.61
2023-02-25T12:09:16.537Z,48.27
2023-02-25T12:10:25.702Z,47.94
2023-02-25T12:11:34.822Z,47.94
2023-02-25T12:12:44.133Z,48.27
2023-02-25T12:13:53.364Z,46.93
2023-02-25T12:15:02.463Z,48.94
2023-02-25T12:16:11.652Z,49.28
2023-02-25T12:17:20.858Z,48.61
2023-02-25T12:18:29.949Z,48.61
2023-02-25T12:19:39.127Z,47.94
2023-02-25T12:20:48.295Z,48.27
2023-02-25T12:21:57.425Z,45.93
2023-02-25T12:23:06.644Z,48.61
2023-02-25T12:24:14.721Z,48.27
2023-02-25T12:25:23.897Z,47.94
2023-02-25T12:26:33.120Z,46.6
2023-02-25T12:27:42.245Z,47.94
2023-02-25T12:28:51.425Z,48.94
2023-02-25T12:30:00.609Z,48.27
2023-02-25T12:31:09.761Z,48.94
2023-02-25T12:32:18.018Z,47.94
2023-02-25T12:33:26.166Z,46.93
2023-02-25T12:34:34.392Z,47.27
2023-02-25T12:35:42.634Z,48.27
2023-02-25T12:36:51.695Z,48.27
2023-02-25T12:38:00.909Z,48.94
2023-02-25T12:39:10.054Z,48.61
2023-02-25T12:40:18.247Z,49.95
2023-02-25T12:41:27.433Z,48.61
2023-02-25T12:42:36.748Z,47.6
2023-02-25T12:43:45.762Z,46.93
2023-02-25T12:44:54.944Z,48.27
2023-02-25T12:46:04.101Z,47.27
2023-02-25T12:47:13.285Z,46.6
2023-02-25T12:48:22.546Z,48.61
2023-02-25T12:49:31.677Z,48.94
2023-02-25T12:50:40.809Z,47.27
2023-02-25T12:51:49.972Z,48.61
2023-02-25T12:52:59.125Z,47.27
2023-02-25T12:54:08.313Z,49.28
2023-02-25T12:55:16.534Z,48.94
2023-02-25T12:56:25.683Z,49.28
2023-02-25T12:57:34.887Z,48.27
2023-02-25T12:58:43.055Z,49.28
2023-02-25T12:59:51.219Z,48.27
2023-02-25T13:01:00.392Z,48.94
2023-02-25T13:02:09.593Z,48.94
2023-02-25T13:03:18.742Z,48.27
2023-02-25T13:04:26.952Z,48.94
2023-02-25T13:05:35.313Z,49.62
2023-02-25T13:06:44.304Z,48.61
2023-02-25T13:07:53.470Z,49.62
2023-02-25T13:09:02.665Z,47.94
2023-02-25T13:10:11.900Z,49.28
2023-02-25T13:11:20.996Z,48.61
2023-02-25T13:12:30.165Z,49.62
2023-02-25T13:13:39.338Z,48.94
2023-02-25T13:14:48.514Z,48.27
2023-02-25T13:15:57.729Z,47.27
2023-02-25T13:17:06.856Z,46.93
2023-02-25T13:18:16.038Z,49.28
2023-02-25T13:19:25.194Z,49.28
2023-02-25T13:20:33.408Z,48.94
2023-02-25T13:21:42.554Z,48.94
2023-02-25T13:22:51.738Z,49.95
2023-02-25T13:24:00.901Z,49.95
2023-02-25T13:25:10.104Z,49.28
2023-02-25T13:26:19.246Z,48.27
2023-02-25T13:27:28.432Z,49.28
2023-02-25T13:28:36.620Z,48.61
2023-02-25T13:29:44.798Z,49.28
2023-02-25T13:30:54.005Z,48.61
2023-02-25T13:32:03.149Z,48.61
2023-02-25T13:33:12.331Z,48.94
2023-02-25T13:34:21.642Z,47.94
2023-02-25T13:35:30.682Z,44.92
2023-02-25T13:36:38.866Z,48.27
2023-02-25T13:37:48.162Z,48.27
2023-02-25T13:38:56.230Z,48.61
2023-02-25T13:40:05.406Z,48.27
2023-02-25T13:41:14.572Z,48.27
2023-02-25T13:42:23.742Z,49.28
2023-02-25T13:43:32.922Z,47.6
2023-02-25T13:44:42.116Z,49.28
2023-02-25T13:45:51.257Z,46.6
2023-02-25T13:47:00.433Z,49.62
2023-02-25T13:48:09.605Z,49.28
2023-02-25T13:49:18.781Z,47.27
2023-02-25T13:50:27.949Z,47.6
2023-02-25T13:51:37.130Z,48.61
2023-02-25T13:52:46.362Z,49.62
2023-02-25T13:53:55.472Z,47.6
2023-02-25T13:55:03.642Z,49.28
2023-02-25T13:56:12.846Z,49.28
2023-02-25T13:57:22.019Z,49.95
2023-02-25T13:58:31.241Z,48.61
2023-02-25T13:59:40.347Z,47.94
2023-02-25T14:00:49.657Z,48.61
2023-02-25T14:01:58.722Z,48.61
2023-02-25T14:03:07.885Z,47.94
2023-02-25T14:04:17.033Z,49.62
2023-02-25T14:05:26.213Z,49.62
2023-02-25T14:06:35.381Z,49.62
2023-02-25T14:07:43.558Z,48.94
2023-02-25T14:08:51.764Z,48.27
2023-02-25T14:10:00.936Z,48.61
2023-02-25T14:11:09.132Z,47.94
2023-02-25T14:13:26.545Z,47.6
2023-02-25T14:14:35.654Z,48.94
2023-02-25T14:15:44.843Z,48.27
2023-02-25T14:16:54.017Z,48.61
2023-02-25T14:18:03.177Z,47.94
2023-02-25T14:19:12.359Z,46.6
2023-02-25T14:20:21.652Z,49.28
2023-02-25T14:21:30.708Z,48.61
2023-02-25T14:22:39.928Z,47.94
2023-02-25T14:23:49.045Z,49.28
2023-02-25T14:24:58.221Z,48.27
2023-02-25T14:26:07.384Z,48.94
2023-02-25T14:27:15.567Z,47.6
2023-02-25T14:28:24.768Z,48.61
2023-02-25T14:29:33.929Z,49.28
2023-02-25T14:30:43.093Z,47.27
2023-02-25T14:31:52.298Z,49.62
2023-02-25T14:34:10.610Z,49.28
2023-02-25T14:35:19.830Z,48.61
2023-02-25T14:36:28.963Z,49.28
2023-02-25T14:37:38.132Z,48.61
2023-02-25T14:38:46.434Z,49.62
2023-02-25T14:39:54.508Z,49.95
2023-02-25T14:41:03.704Z,47.94
2023-02-25T14:42:12.886Z,49.28
2023-02-25T14:43:22.032Z,49.62
2023-02-25T14:44:31.218Z,49.28
2023-02-25T14:45:40.463Z,48.94
2023-02-25T14:46:49.612Z,46.93
2023-02-25T14:47:57.730Z,48.27
2023-02-25T14:49:05.915Z,48.27
2023-02-25T14:50:15.093Z,47.94
2023-02-25T14:51:24.267Z,48.94
2023-02-25T14:52:33.437Z,49.95
2023-02-25T14:53:42.748Z,48.27
2023-02-25T14:54:51.940Z,49.28
2023-02-25T14:56:00.965Z,49.28
2023-02-25T14:57:10.125Z,48.61
2023-02-25T14:58:19.293Z,48.61
2023-02-25T14:59:28.455Z,48.94
2023-02-25T15:00:37.734Z,50.29
2023-02-25T15:01:46.810Z,48.61
2023-02-25T15:02:56.037Z,48.27
2023-02-25T15:04:04.173Z,48.27
2023-02-25T15:05:13.342Z,49.28
2023-02-25T15:06:22.515Z,48.61
2023-02-25T15:07:31.768Z,48.27
2023-02-25T15:08:40.850Z,47.27
2023-02-25T15:09:50.043Z,49.62
2023-02-25T15:10:59.318Z,48.27
2023-02-25T15:12:07.390Z,47.94
2023-02-25T15:13:15.630Z,49.28
2023-02-25T15:14:23.798Z,47.27
2023-02-25T15:15:32.076Z,49.28
2023-02-25T15:16:41.146Z,48.61
2023-02-25T15:17:50.357Z,49.28
2023-02-25T15:18:59.547Z,48.27
2023-02-25T15:20:08.646Z,48.94
2023-02-25T15:21:17.817Z,48.94
2023-02-25T15:22:26.994Z,48.94
2023-02-25T15:23:36.170Z,49.95
2023-02-25T15:24:45.373Z,49.62
2023-02-25T15:25:54.511Z,49.28
2023-02-25T15:27:03.703Z,48.27